sensor_id;sensor_type;location;lat;lon;timestamp;pressure;altitude;pressure_sealevel;temperature;humidity
22206;BME280;11272;50.104;8.754;2023-02-13T00:02:00;102771.63;;;9.62;71.71
22206;BME280;11272;50.104;8.754;2023-02-13T00:04:26;102771.63;;;9.62;71.45
22206;BME280;11272;50.104;8.754;2023-02-13T00:06:51;102771.63;;;9.62;71.49
22206;BME280;11272;50.104;8.754;2023-02-13T00:09:17;102767.22;;;9.62;71.96
22206;BME280;11272;50.104;8.754;2023-02-13T00:11:42;102769.91;;;9.64;71.95
22206;BME280;11272;50.104;8.754;2023-02-13T00:14:08;102767.25;;;9.64;72.03
22206;BME280;11272;50.104;8.754;2023-02-13T00:16:34;102767.25;;;9.64;71.51
22206;BME280;11272;50.104;8.754;2023-02-13T00:19:00;102757.50;;;9.63;71.71
22206;BME280;11272;50.104;8.754;2023-02-13T00:21:25;102760.16;;;9.61;71.69
22206;BME280;11272;50.104;8.754;2023-02-13T00:23:51;102761.00;;;9.62;71.68
22206;BME280;11272;50.104;8.754;2023-02-13T00:26:17;102758.38;;;9.62;71.47
22206;BME280;11272;50.104;8.754;2023-02-13T00:28:44;102761.00;;;9.62;71.55
22206;BME280;11272;50.104;8.754;2023-02-13T00:31:15;102757.47;;;9.60;71.71
22206;BME280;11272;50.104;8.754;2023-02-13T00:33:41;102759.22;;;9.59;71.33
22206;BME280;11272;50.104;8.754;2023-02-13T00:36:12;102759.16;;;9.58;71.67
22206;BME280;11272;50.104;8.754;2023-02-13T00:38:39;102760.03;;;9.57;71.54
22206;BME280;11272;50.104;8.754;2023-02-13T00:41:05;102760.03;;;9.57;71.87
22206;BME280;11272;50.104;8.754;2023-02-13T00:43:31;102761.81;;;9.58;71.82
22206;BME280;11272;50.104;8.754;2023-02-13T00:45:57;102756.53;;;9.58;71.43
22206;BME280;11272;50.104;8.754;2023-02-13T00:48:24;102751.22;;;9.58;72.05
22206;BME280;11272;50.104;8.754;2023-02-13T00:50:50;102752.13;;;9.58;72.32
22206;BME280;11272;50.104;8.754;2023-02-13T00:53:17;102759.16;;;9.58;71.87
22206;BME280;11272;50.104;8.754;2023-02-13T00:55:45;102754.72;;;9.57;72.01
22206;BME280;11272;50.104;8.754;2023-02-13T00:58:11;102755.63;;;9.56;71.69
22206;BME280;11272;50.104;8.754;2023-02-13T01:00:37;102751.16;;;9.55;71.89
22206;BME280;11272;50.104;8.754;2023-02-13T01:03:04;102752.03;;;9.54;72.01
22206;BME280;11272;50.104;8.754;2023-02-13T01:05:29;102747.56;;;9.53;71.55
22206;BME280;11272;50.104;8.754;2023-02-13T01:07:55;102749.38;;;9.54;71.69
22206;BME280;11272;50.104;8.754;2023-02-13T01:10:20;102752.06;;;9.55;71.51
22206;BME280;11272;50.104;8.754;2023-02-13T01:12:47;102760.88;;;9.54;71.65
22206;BME280;11272;50.104;8.754;2023-02-13T01:15:12;102748.50;;;9.55;72.05
22206;BME280;11272;50.104;8.754;2023-02-13T01:17:38;102754.72;;;9.55;71.98
22206;BME280;11272;50.104;8.754;2023-02-13T01:20:08;102747.66;;;9.56;71.88
22206;BME280;11272;50.104;8.754;2023-02-13T01:22:35;102752.97;;;9.56;71.49
22206;BME280;11272;50.104;8.754;2023-02-13T01:25:01;102747.56;;;9.53;71.84
22206;BME280;11272;50.104;8.754;2023-02-13T01:27:29;102743.97;;;9.49;71.53
22206;BME280;11272;50.104;8.754;2023-02-13T01:29:56;102743.94;;;9.48;71.61
22206;BME280;11272;50.104;8.754;2023-02-13T01:32:23;102745.66;;;9.46;71.57
22206;BME280;11272;50.104;8.754;2023-02-13T01:34:49;102744.75;;;9.44;71.61
22206;BME280;11272;50.104;8.754;2023-02-13T01:37:14;102743.81;;;9.42;71.62
22206;BME280;11272;50.104;8.754;2023-02-13T01:39:40;102751.72;;;9.39;71.22
22206;BME280;11272;50.104;8.754;2023-02-13T01:42:15;102743.69;;;9.36;71.59
22206;BME280;11272;50.104;8.754;2023-02-13T01:45:24;102745.38;;;9.32;71.07
22206;BME280;11272;50.104;8.754;2023-02-13T01:48:15;102756.81;;;9.29;71.27
22206;BME280;11272;50.104;8.754;2023-02-13T01:50:56;102745.19;;;9.24;70.87
22206;BME280;11272;50.104;8.754;2023-02-13T01:56:19;102738.00;;;9.17;71.55
22206;BME280;11272;50.104;8.754;2023-02-13T01:58:48;102739.66;;;9.14;70.81
22206;BME280;11272;50.104;8.754;2023-02-13T02:01:16;102734.28;;;9.08;70.56
22206;BME280;11272;50.104;8.754;2023-02-13T02:03:49;102729.72;;;9.02;70.65
22206;BME280;11272;50.104;8.754;2023-02-13T02:06:24;102734.03;;;8.97;71.38
22206;BME280;11272;50.104;8.754;2023-02-13T02:08:53;102737.53;;;8.96;71.37
22206;BME280;11272;50.104;8.754;2023-02-13T02:11:29;102740.94;;;8.92;70.96
22206;BME280;11272;50.104;8.754;2023-02-13T02:13:57;102733.78;;;8.86;70.96
22206;BME280;11272;50.104;8.754;2023-02-13T02:16:35;102733.69;;;8.83;71.17
22206;BME280;11272;50.104;8.754;2023-02-13T02:19:24;102730.09;;;8.81;71.52
22206;BME280;11272;50.104;8.754;2023-02-13T02:24:42;102731.66;;;8.72;71.61
22206;BME280;11272;50.104;8.754;2023-02-13T02:27:28;102727.13;;;8.66;71.01
22206;BME280;11272;50.104;8.754;2023-02-13T02:33:40;102725.06;;;8.53;71.75
22206;BME280;11272;50.104;8.754;2023-02-13T02:41:29;102725.59;;;8.38;72.13
22206;BME280;11272;50.104;8.754;2023-02-13T02:44:38;102723.59;;;8.30;71.68
22206;BME280;11272;50.104;8.754;2023-02-13T02:47:17;102724.22;;;8.21;71.98
22206;BME280;11272;50.104;8.754;2023-02-13T02:53:27;102731.69;;;8.03;72.40
22206;BME280;11272;50.104;8.754;2023-02-13T02:55:42;102730.50;;;7.92;72.66
22206;BME280;11272;50.104;8.754;2023-02-13T02:58:23;102734.59;;;7.79;72.81
22206;BME280;11272;50.104;8.754;2023-02-13T03:01:13;102730.78;;;7.70;72.49
22206;BME280;11272;50.104;8.754;2023-02-13T03:04:02;102732.22;;;7.57;72.93
22206;BME280;11272;50.104;8.754;2023-02-13T03:06:52;102734.56;;;7.46;72.91
22206;BME280;11272;50.104;8.754;2023-02-13T03:09:26;102740.50;;;7.39;73.50
22206;BME280;11272;50.104;8.754;2023-02-13T03:12:16;102738.41;;;7.28;73.52
22206;BME280;11272;50.104;8.754;2023-02-13T03:15:03;102744.31;;;7.19;73.68
22206;BME280;11272;50.104;8.754;2023-02-13T03:17:29;102744.94;;;7.10;73.81
22206;BME280;11272;50.104;8.754;2023-02-13T03:20:24;102745.47;;;6.99;74.05
22206;BME280;11272;50.104;8.754;2023-02-13T03:26:04;102744.91;;;6.81;74.42
22206;BME280;11272;50.104;8.754;2023-02-13T03:28:34;102743.72;;;6.71;74.83
22206;BME280;11272;50.104;8.754;2023-02-13T03:31:37;102749.59;;;6.62;75.08
22206;BME280;11272;50.104;8.754;2023-02-13T03:34:19;102746.72;;;6.55;75.37
22206;BME280;11272;50.104;8.754;2023-02-13T03:36:52;102741.22;;;6.49;75.29
22206;BME280;11272;50.104;8.754;2023-02-13T03:40:07;102746.25;;;6.41;75.65
22206;BME280;11272;50.104;8.754;2023-02-13T03:42:44;102750.38;;;6.33;75.83
22206;BME280;11272;50.104;8.754;2023-02-13T03:45:16;102750.13;;;6.25;75.74
22206;BME280;11272;50.104;8.754;2023-02-13T03:48:13;102747.25;;;6.18;76.30
22206;BME280;11272;50.104;8.754;2023-02-13T03:51:00;102751.47;;;6.13;76.19
22206;BME280;11272;50.104;8.754;2023-02-13T03:53:29;102759.25;;;6.10;76.49
22206;BME280;11272;50.104;8.754;2023-02-13T03:55:58;102758.19;;;6.05;76.51
22206;BME280;11272;50.104;8.754;2023-02-13T03:58:47;102752.63;;;5.96;76.78
22206;BME280;11272;50.104;8.754;2023-02-13T04:01:34;102755.88;;;5.88;76.88
22206;BME280;11272;50.104;8.754;2023-02-13T04:04:16;102762.69;;;5.83;76.81
22206;BME280;11272;50.104;8.754;2023-02-13T04:06:52;102759.00;;;5.78;77.06
22206;BME280;11272;50.104;8.754;2023-02-13T04:09:21;102757.16;;;5.76;77.40
22206;BME280;11272;50.104;8.754;2023-02-13T04:12:14;102757.88;;;5.72;77.00
22206;BME280;11272;50.104;8.754;2023-02-13T04:14:48;102761.38;;;5.71;77.53
22206;BME280;11272;50.104;8.754;2023-02-13T04:17:21;102755.97;;;5.68;77.45
22206;BME280;11272;50.104;8.754;2023-02-13T04:19:47;102756.66;;;5.62;77.47
22206;BME280;11272;50.104;8.754;2023-02-13T04:22:13;102763.56;;;5.59;77.89
22206;BME280;11272;50.104;8.754;2023-02-13T04:24:39;102757.28;;;5.55;78.20
22206;BME280;11272;50.104;8.754;2023-02-13T04:27:05;102756.34;;;5.53;78.32
22206;BME280;11272;50.104;8.754;2023-02-13T04:29:31;102759.72;;;5.50;78.58
22206;BME280;11272;50.104;8.754;2023-02-13T04:31:56;102755.34;;;5.49;78.57
22206;BME280;11272;50.104;8.754;2023-02-13T04:34:22;102763.28;;;5.51;78.45
22206;BME280;11272;50.104;8.754;2023-02-13T04:36:47;102754.53;;;5.52;78.22
22206;BME280;11272;50.104;8.754;2023-02-13T04:39:13;102751.16;;;5.56;78.49
22206;BME280;11272;50.104;8.754;2023-02-13T04:41:38;102754.81;;;5.60;78.72
22206;BME280;11272;50.104;8.754;2023-02-13T04:44:04;102746.94;;;5.61;79.08
22206;BME280;11272;50.104;8.754;2023-02-13T04:46:30;102748.72;;;5.61;79.20
22206;BME280;11272;50.104;8.754;2023-02-13T04:48:55;102751.22;;;5.58;79.50
22206;BME280;11272;50.104;8.754;2023-02-13T04:51:22;102748.34;;;5.51;79.82
22206;BME280;11272;50.104;8.754;2023-02-13T04:53:47;102754.31;;;5.46;79.57
22206;BME280;11272;50.104;8.754;2023-02-13T04:56:14;102744.41;;;5.39;79.92
22206;BME280;11272;50.104;8.754;2023-02-13T04:58:39;102745.09;;;5.35;79.63
22206;BME280;11272;50.104;8.754;2023-02-13T05:01:14;102755.44;;;5.29;79.89
22206;BME280;11272;50.104;8.754;2023-02-13T05:03:40;102751.69;;;5.24;79.85
22206;BME280;11272;50.104;8.754;2023-02-13T05:06:06;102752.44;;;5.20;79.62
22206;BME280;11272;50.104;8.754;2023-02-13T05:08:32;102747.91;;;5.16;80.03
22206;BME280;11272;50.104;8.754;2023-02-13T05:10:58;102753.91;;;5.12;80.35
22206;BME280;11272;50.104;8.754;2023-02-13T05:13:23;102753.75;;;5.08;79.99
22206;BME280;11272;50.104;8.754;2023-02-13T05:15:49;102759.00;;;5.07;80.18
22206;BME280;11272;50.104;8.754;2023-02-13T05:18:19;102756.28;;;5.05;80.52
22206;BME280;11272;50.104;8.754;2023-02-13T05:20:44;102763.28;;;5.05;80.43
22206;BME280;11272;50.104;8.754;2023-02-13T05:23:30;102757.94;;;5.03;80.50
22206;BME280;11272;50.104;8.754;2023-02-13T05:25:55;102761.50;;;5.04;80.63
22206;BME280;11272;50.104;8.754;2023-02-13T05:28:21;102764.13;;;5.04;80.73
22206;BME280;11272;50.104;8.754;2023-02-13T05:31:05;102765.81;;;5.02;80.48
22206;BME280;11272;50.104;8.754;2023-02-13T05:33:30;102757.13;;;5.04;80.63
22206;BME280;11272;50.104;8.754;2023-02-13T05:35:56;102765.91;;;5.05;80.62
22206;BME280;11272;50.104;8.754;2023-02-13T05:38:22;102765.09;;;5.06;81.42
22206;BME280;11272;50.104;8.754;2023-02-13T05:40:47;102764.19;;;5.05;81.24
22206;BME280;11272;50.104;8.754;2023-02-13T05:43:13;102758.91;;;5.05;81.32
22206;BME280;11272;50.104;8.754;2023-02-13T05:45:40;102762.31;;;5.03;81.50
22206;BME280;11272;50.104;8.754;2023-02-13T05:48:05;102766.69;;;5.02;81.21
22206;BME280;11272;50.104;8.754;2023-02-13T05:50:31;102764.84;;;5.00;81.51
22206;BME280;11272;50.104;8.754;2023-02-13T05:52:56;102762.97;;;4.97;81.46
22206;BME280;11272;50.104;8.754;2023-02-13T05:55:22;102765.56;;;4.96;81.54
22206;BME280;11272;50.104;8.754;2023-02-13T05:57:48;102774.38;;;4.96;81.54
22206;BME280;11272;50.104;8.754;2023-02-13T06:00:14;102770.19;;;5.01;82.08
22206;BME280;11272;50.104;8.754;2023-02-13T06:02:40;102775.63;;;5.06;81.97
22206;BME280;11272;50.104;8.754;2023-02-13T06:05:06;102768.56;;;5.05;81.77
22206;BME280;11272;50.104;8.754;2023-02-13T06:07:32;102773.88;;;5.06;81.76
22206;BME280;11272;50.104;8.754;2023-02-13T06:09:57;102768.63;;;5.06;81.88
22206;BME280;11272;50.104;8.754;2023-02-13T06:12:24;102777.34;;;5.05;82.08
22206;BME280;11272;50.104;8.754;2023-02-13T06:14:49;102771.13;;;5.03;82.34
22206;BME280;11272;50.104;8.754;2023-02-13T06:17:15;102773.56;;;4.99;81.64
22206;BME280;11272;50.104;8.754;2023-02-13T06:19:40;102769.03;;;4.95;82.01
22206;BME280;11272;50.104;8.754;2023-02-13T06:22:06;102769.69;;;4.89;81.97
22206;BME280;11272;50.104;8.754;2023-02-13T06:24:32;102766.81;;;4.83;82.09
22206;BME280;11272;50.104;8.754;2023-02-13T06:26:57;102767.53;;;4.79;82.42
22206;BME280;11272;50.104;8.754;2023-02-13T06:29:23;102767.41;;;4.76;82.50
22206;BME280;11272;50.104;8.754;2023-02-13T06:31:49;102764.84;;;4.78;82.83
22206;BME280;11272;50.104;8.754;2023-02-13T06:34:14;102763.94;;;4.77;82.26
22206;BME280;11272;50.104;8.754;2023-02-13T06:36:43;102768.25;;;4.75;82.52
22206;BME280;11272;50.104;8.754;2023-02-13T06:39:09;102763.66;;;4.70;82.54
22206;BME280;11272;50.104;8.754;2023-02-13T06:41:35;102767.88;;;4.66;83.00
22206;BME280;11272;50.104;8.754;2023-02-13T06:44:00;102764.31;;;4.64;82.69
22206;BME280;11272;50.104;8.754;2023-02-13T06:46:26;102772.19;;;4.64;82.73
22206;BME280;11272;50.104;8.754;2023-02-13T06:48:52;102775.72;;;4.64;82.66
22206;BME280;11272;50.104;8.754;2023-02-13T06:51:17;102784.47;;;4.65;83.04
22206;BME280;11272;50.104;8.754;2023-02-13T06:53:43;102778.53;;;4.69;83.34
22206;BME280;11272;50.104;8.754;2023-02-13T06:56:08;102779.72;;;4.77;83.06
22206;BME280;11272;50.104;8.754;2023-02-13T06:58:35;102782.53;;;4.82;83.33
22206;BME280;11272;50.104;8.754;2023-02-13T07:01:03;102776.59;;;4.86;83.05
22206;BME280;11272;50.104;8.754;2023-02-13T07:03:28;102780.22;;;4.89;83.57
22206;BME280;11272;50.104;8.754;2023-02-13T07:05:54;102782.97;;;4.92;83.03
22206;BME280;11272;50.104;8.754;2023-02-13T07:08:20;102783.84;;;4.93;83.57
22206;BME280;11272;50.104;8.754;2023-02-13T07:10:46;102784.75;;;4.93;83.25
22206;BME280;11272;50.104;8.754;2023-02-13T07:13:11;102779.56;;;4.95;83.36
22206;BME280;11272;50.104;8.754;2023-02-13T07:15:37;102787.53;;;4.96;83.40
22206;BME280;11272;50.104;8.754;2023-02-13T07:18:03;102786.66;;;4.97;83.80
22206;BME280;11272;50.104;8.754;2023-02-13T07:20:30;102784.03;;;4.97;83.31
22206;BME280;11272;50.104;8.754;2023-02-13T07:23:00;102787.56;;;4.98;83.75
22206;BME280;11272;50.104;8.754;2023-02-13T07:25:26;102788.53;;;5.00;83.70
22206;BME280;11272;50.104;8.754;2023-02-13T07:27:53;102785.13;;;5.02;84.06
22206;BME280;11272;50.104;8.754;2023-02-13T07:30:19;102798.41;;;5.05;84.03
22206;BME280;11272;50.104;8.754;2023-02-13T07:32:47;102788.00;;;5.08;84.06
22206;BME280;11272;50.104;8.754;2023-02-13T07:35:13;102792.56;;;5.13;84.05
22206;BME280;11272;50.104;8.754;2023-02-13T07:37:39;102790.94;;;5.16;83.73
22206;BME280;11272;50.104;8.754;2023-02-13T07:40:05;102789.31;;;5.20;84.05
22206;BME280;11272;50.104;8.754;2023-02-13T07:42:32;102792.06;;;5.23;84.12
22206;BME280;11272;50.104;8.754;2023-02-13T07:44:59;102791.41;;;5.28;84.09
22206;BME280;11272;50.104;8.754;2023-02-13T07:47:24;102800.38;;;5.33;84.34
22206;BME280;11272;50.104;8.754;2023-02-13T07:49:50;102801.50;;;5.40;84.22
22206;BME280;11272;50.104;8.754;2023-02-13T07:52:16;102789.44;;;5.46;84.42
22206;BME280;11272;50.104;8.754;2023-02-13T07:57:32;102796.81;;;5.55;84.01
22206;BME280;11272;50.104;8.754;2023-02-13T08:02:53;102807.41;;;5.57;85.10
22206;BME280;11272;50.104;8.754;2023-02-13T08:05:18;102804.09;;;5.62;85.21
22206;BME280;11272;50.104;8.754;2023-02-13T08:08:05;102799.19;;;5.71;85.54
22206;BME280;11272;50.104;8.754;2023-02-13T08:10:30;102797.53;;;5.75;85.20
22206;BME280;11272;50.104;8.754;2023-02-13T08:13:16;102806.22;;;5.72;84.93
22206;BME280;11272;50.104;8.754;2023-02-13T08:15:42;102799.06;;;5.68;84.51
22206;BME280;11272;50.104;8.754;2023-02-13T08:18:15;102809.81;;;5.74;85.22
22206;BME280;11272;50.104;8.754;2023-02-13T08:20:40;102815.31;;;5.80;85.02
22206;BME280;11272;50.104;8.754;2023-02-13T08:23:08;102803.22;;;5.85;85.06
22206;BME280;11272;50.104;8.754;2023-02-13T08:31:11;102820.44;;;6.23;84.10
22206;BME280;11272;50.104;8.754;2023-02-13T08:33:37;102818.47;;;6.43;84.92
22206;BME280;11272;50.104;8.754;2023-02-13T08:36:06;102819.03;;;6.60;84.42
22206;BME280;11272;50.104;8.754;2023-02-13T08:41:27;102814.88;;;6.95;84.23
22206;BME280;11272;50.104;8.754;2023-02-13T08:43:53;102818.03;;;7.10;84.19
22206;BME280;11272;50.104;8.754;2023-02-13T08:46:18;102816.69;;;7.24;83.76
22206;BME280;11272;50.104;8.754;2023-02-13T08:48:44;102821.88;;;7.49;83.57
22206;BME280;11272;50.104;8.754;2023-02-13T08:51:11;102818.81;;;7.66;83.06
22206;BME280;11272;50.104;8.754;2023-02-13T08:53:37;102815.88;;;7.86;82.85
22206;BME280;11272;50.104;8.754;2023-02-13T08:56:04;102817.13;;;7.99;82.02
22206;BME280;11272;50.104;8.754;2023-02-13T08:58:30;102818.09;;;8.02;81.07
22206;BME280;11272;50.104;8.754;2023-02-13T09:00:55;102813.88;;;8.09;80.18
22206;BME280;11272;50.104;8.754;2023-02-13T09:03:21;102817.78;;;8.23;80.16
22206;BME280;11272;50.104;8.754;2023-02-13T09:05:47;102817.25;;;8.35;80.01
22206;BME280;11272;50.104;8.754;2023-02-13T09:08:13;102812.75;;;8.65;79.96
22206;BME280;11272;50.104;8.754;2023-02-13T09:10:40;102817.09;;;8.99;79.92
22206;BME280;11272;50.104;8.754;2023-02-13T09:13:08;102807.31;;;9.36;79.61
22206;BME280;11272;50.104;8.754;2023-02-13T09:15:37;102804.16;;;9.95;79.35
22206;BME280;11272;50.104;8.754;2023-02-13T09:18:03;102795.72;;;10.66;77.87
22206;BME280;11272;50.104;8.754;2023-02-13T09:20:28;102795.03;;;11.39;76.75
22206;BME280;11272;50.104;8.754;2023-02-13T09:22:54;102790.72;;;11.47;72.49
22206;BME280;11272;50.104;8.754;2023-02-13T09:25:22;102789.84;;;11.50;71.34
22206;BME280;11272;50.104;8.754;2023-02-13T09:27:47;102791.19;;;11.80;71.58
22206;BME280;11272;50.104;8.754;2023-02-13T09:30:13;102780.31;;;12.50;70.83
22206;BME280;11272;50.104;8.754;2023-02-13T09:32:49;102789.78;;;13.31;68.80
22206;BME280;11272;50.104;8.754;2023-02-13T09:35:16;102774.91;;;13.83;66.66
22206;BME280;11272;50.104;8.754;2023-02-13T09:37:42;102773.25;;;14.55;65.34
22206;BME280;11272;50.104;8.754;2023-02-13T09:40:24;102773.13;;;15.31;62.82
22206;BME280;11272;50.104;8.754;2023-02-13T09:42:51;102768.53;;;15.69;60.93
22206;BME280;11272;50.104;8.754;2023-02-13T09:48:18;102763.22;;;16.83;58.44
22206;BME280;11272;50.104;8.754;2023-02-13T10:05:32;102760.31;;;19.39;50.01
22206;BME280;11272;50.104;8.754;2023-02-13T10:14:00;102754.19;;;19.72;45.18
22206;BME280;11272;50.104;8.754;2023-02-13T10:19:37;102754.72;;;20.28;44.86
22206;BME280;11272;50.104;8.754;2023-02-13T10:22:13;102758.72;;;20.49;44.13
22206;BME280;11272;50.104;8.754;2023-02-13T10:27:54;102753.72;;;20.68;42.39
22206;BME280;11272;50.104;8.754;2023-02-13T10:30:22;102751.28;;;20.92;41.72
22206;BME280;11272;50.104;8.754;2023-02-13T10:35:29;102740.03;;;21.40;40.56
22206;BME280;11272;50.104;8.754;2023-02-13T10:41:05;102745.50;;;21.97;39.59
22206;BME280;11272;50.104;8.754;2023-02-13T10:43:39;102737.22;;;22.02;39.15
22206;BME280;11272;50.104;8.754;2023-02-13T10:51:32;102732.16;;;22.45;38.16
22206;BME280;11272;50.104;8.754;2023-02-13T11:00:13;102715.06;;;22.96;37.15
22206;BME280;11272;50.104;8.754;2023-02-13T11:02:43;102714.38;;;23.14;36.14
22206;BME280;11272;50.104;8.754;2023-02-13T11:07:41;102707.56;;;23.27;35.59
22206;BME280;11272;50.104;8.754;2023-02-13T11:10:20;102699.41;;;23.74;35.47
22206;BME280;11272;50.104;8.754;2023-02-13T11:12:47;102692.00;;;24.01;34.33
22206;BME280;11272;50.104;8.754;2023-02-13T11:15:30;102681.44;;;24.37;34.74
22206;BME280;11272;50.104;8.754;2023-02-13T11:18:16;102682.69;;;24.70;34.23
22206;BME280;11272;50.104;8.754;2023-02-13T11:20:44;102683.34;;;24.55;32.74
22206;BME280;11272;50.104;8.754;2023-02-13T11:25:52;102672.53;;;23.68;34.04
22206;BME280;11272;50.104;8.754;2023-02-13T11:28:21;102676.19;;;24.10;32.99
22206;BME280;11272;50.104;8.754;2023-02-13T11:30:47;102668.41;;;24.24;32.79
22206;BME280;11272;50.104;8.754;2023-02-13T11:35:45;102669.19;;;24.89;31.39
22206;BME280;11272;50.104;8.754;2023-02-13T11:44:03;102666.09;;;25.35;30.34
22206;BME280;11272;50.104;8.754;2023-02-13T11:49:28;102653.88;;;25.81;30.42
22206;BME280;11272;50.104;8.754;2023-02-13T11:51:56;102654.69;;;25.65;29.76
22206;BME280;11272;50.104;8.754;2023-02-13T11:54:40;102650.38;;;25.79;29.92
22206;BME280;11272;50.104;8.754;2023-02-13T11:57:22;102654.75;;;26.01;29.92
22206;BME280;11272;50.104;8.754;2023-02-13T11:59:50;102653.00;;;26.17;29.12
22206;BME280;11272;50.104;8.754;2023-02-13T12:02:25;102640.22;;;26.36;29.11
22206;BME280;11272;50.104;8.754;2023-02-13T12:07:33;102627.84;;;26.80;28.17
22206;BME280;11272;50.104;8.754;2023-02-13T12:12:38;102632.44;;;27.13;27.73
22206;BME280;11272;50.104;8.754;2023-02-13T12:15:20;102632.63;;;27.41;27.55
22206;BME280;11272;50.104;8.754;2023-02-13T12:20:52;102636.34;;;27.40;26.99
22206;BME280;11272;50.104;8.754;2023-02-13T12:32:48;102617.75;;;27.78;26.62
22206;BME280;11272;50.104;8.754;2023-02-13T12:38:19;102611.31;;;27.48;26.79
22206;BME280;11272;50.104;8.754;2023-02-13T12:43:30;102615.81;;;27.49;26.26
22206;BME280;11272;50.104;8.754;2023-02-13T12:46:09;102598.13;;;27.72;26.23
22206;BME280;11272;50.104;8.754;2023-02-13T13:02:21;102584.41;;;26.60;26.61
22206;BME280;11272;50.104;8.754;2023-02-13T13:04:59;102584.81;;;26.35;26.43
22206;BME280;11272;50.104;8.754;2023-02-13T13:10:14;102574.81;;;25.47;27.19
22206;BME280;11272;50.104;8.754;2023-02-13T13:18:31;102585.06;;;22.68;29.38
22206;BME280;11272;50.104;8.754;2023-02-13T13:21:10;102582.03;;;22.77;29.17
22206;BME280;11272;50.104;8.754;2023-02-13T13:29:16;102581.41;;;20.80;30.89
22206;BME280;11272;50.104;8.754;2023-02-13T13:31:51;102583.03;;;20.56;31.40
22206;BME280;11272;50.104;8.754;2023-02-13T13:34:22;102582.31;;;20.14;31.48
22206;BME280;11272;50.104;8.754;2023-02-13T13:37:04;102584.28;;;19.35;32.14
22206;BME280;11272;50.104;8.754;2023-02-13T13:47:49;102578.16;;;17.39;34.96
22206;BME280;11272;50.104;8.754;2023-02-13T13:50:24;102576.50;;;17.88;34.71
22206;BME280;11272;50.104;8.754;2023-02-13T13:53:16;102568.94;;;18.10;34.86
22206;BME280;11272;50.104;8.754;2023-02-13T14:01:16;102567.97;;;17.62;35.65
22206;BME280;11272;50.104;8.754;2023-02-13T14:03:44;102567.97;;;17.59;35.88
22206;BME280;11272;50.104;8.754;2023-02-13T14:06:13;102558.13;;;18.12;35.64
22206;BME280;11272;50.104;8.754;2023-02-13T14:13:54;102554.06;;;18.81;35.10
22206;BME280;11272;50.104;8.754;2023-02-13T14:19:02;102562.91;;;18.88;35.39
22206;BME280;11272;50.104;8.754;2023-02-13T14:21:29;102564.91;;;19.18;35.00
22206;BME280;11272;50.104;8.754;2023-02-13T14:23:56;102553.22;;;19.59;34.94
22206;BME280;11272;50.104;8.754;2023-02-13T14:26:36;102553.94;;;20.00;34.29
22206;BME280;11272;50.104;8.754;2023-02-13T14:29:25;102555.13;;;19.88;34.07
22206;BME280;11272;50.104;8.754;2023-02-13T14:31:58;102548.06;;;19.49;34.40
22206;BME280;11272;50.104;8.754;2023-02-13T14:34:28;102546.53;;;18.97;34.93
22206;BME280;11272;50.104;8.754;2023-02-13T14:37:11;102548.25;;;18.60;35.36
22206;BME280;11272;50.104;8.754;2023-02-13T14:42:41;102545.50;;;17.67;36.47
22206;BME280;11272;50.104;8.754;2023-02-13T14:45:29;102547.06;;;17.22;36.82
22206;BME280;11272;50.104;8.754;2023-02-13T14:48:01;102544.00;;;16.87;37.49
22206;BME280;11272;50.104;8.754;2023-02-13T14:50:50;102542.84;;;16.33;38.12
22206;BME280;11272;50.104;8.754;2023-02-13T14:53:25;102540.50;;;15.99;38.88
22206;BME280;11272;50.104;8.754;2023-02-13T14:56:06;102542.56;;;15.75;39.31
22206;BME280;11272;50.104;8.754;2023-02-13T14:58:43;102548.84;;;15.66;39.44
22206;BME280;11272;50.104;8.754;2023-02-13T15:04:11;102541.97;;;15.29;39.77
22206;BME280;11272;50.104;8.754;2023-02-13T15:06:41;102543.81;;;15.17;40.34
22206;BME280;11272;50.104;8.754;2023-02-13T15:09:23;102539.47;;;15.04;40.49
22206;BME280;11272;50.104;8.754;2023-02-13T15:11:51;102538.56;;;15.02;40.89
22206;BME280;11272;50.104;8.754;2023-02-13T15:14:21;102529.69;;;14.99;40.72
22206;BME280;11272;50.104;8.754;2023-02-13T15:17:02;102531.50;;;14.92;41.36
22206;BME280;11272;50.104;8.754;2023-02-13T15:19:31;102529.72;;;14.93;41.13
22206;BME280;11272;50.104;8.754;2023-02-13T15:22:14;102525.25;;;14.93;41.13
22206;BME280;11272;50.104;8.754;2023-02-13T15:24:47;102523.56;;;14.77;41.73
22206;BME280;11272;50.104;8.754;2023-02-13T15:27:24;102521.81;;;14.73;41.62
22206;BME280;11272;50.104;8.754;2023-02-13T15:32:26;102524.50;;;14.65;42.04
22206;BME280;11272;50.104;8.754;2023-02-13T15:34:52;102521.91;;;14.52;41.99
22206;BME280;11272;50.104;8.754;2023-02-13T15:37:20;102526.34;;;14.48;42.02
22206;BME280;11272;50.104;8.754;2023-02-13T15:39:47;102529.06;;;14.41;42.27
22206;BME280;11272;50.104;8.754;2023-02-13T15:42:12;102534.41;;;14.30;42.42
22206;BME280;11272;50.104;8.754;2023-02-13T15:44:38;102534.44;;;14.13;42.62
22206;BME280;11272;50.104;8.754;2023-02-13T15:47:07;102530.88;;;14.05;43.17
22206;BME280;11272;50.104;8.754;2023-02-13T15:49:37;102531.81;;;13.90;43.58
22206;BME280;11272;50.104;8.754;2023-02-13T15:52:14;102531.84;;;13.77;43.68
22206;BME280;11272;50.104;8.754;2023-02-13T15:54:51;102528.28;;;13.75;43.79
22206;BME280;11272;50.104;8.754;2023-02-13T15:57:17;102531.84;;;13.72;43.93
22206;BME280;11272;50.104;8.754;2023-02-13T15:59:44;102524.72;;;13.70;43.94
22206;BME280;11272;50.104;8.754;2023-02-13T16:02:17;102524.72;;;13.58;44.21
22206;BME280;11272;50.104;8.754;2023-02-13T16:04:44;102527.38;;;13.53;44.21
22206;BME280;11272;50.104;8.754;2023-02-13T16:07:11;102530.94;;;13.37;44.52
22206;BME280;11272;50.104;8.754;2023-02-13T16:09:38;102537.16;;;13.24;44.55
22206;BME280;11272;50.104;8.754;2023-02-13T16:15:00;102539.75;;;12.98;45.18
22206;BME280;11272;50.104;8.754;2023-02-13T16:17:36;102545.03;;;12.90;45.25
22206;BME280;11272;50.104;8.754;2023-02-13T16:20:05;102546.78;;;12.84;45.14